createdAt,value
2022-10-28T00:01:50.436Z,12.1
2022-10-28T00:05:46.652Z,12
2022-10-28T00:07:49.143Z,12.1
2022-10-28T00:09:48.220Z,12
2022-10-28T00:11:45.376Z,11.9
2022-10-28T00:13:48.476Z,11.9
2022-10-28T00:15:45.539Z,11.6
2022-10-28T00:19:48.608Z,11.5
2022-10-28T00:21:46.143Z,11.5
2022-10-28T00:23:47.905Z,11.5
2022-10-28T00:25:45.630Z,11.6
2022-10-28T00:27:48.695Z,11.8
2022-10-28T00:29:45.367Z,11.8
2022-10-28T00:31:46.355Z,12
2022-10-28T00:33:48.621Z,11.9
2022-10-28T00:35:45.362Z,12
2022-10-28T00:37:48.642Z,11.9
2022-10-28T00:39:45.674Z,11.9
2022-10-28T00:41:45.486Z,11.7
2022-10-28T00:43:48.766Z,11.5
2022-10-28T00:45:45.558Z,11.5
2022-10-28T00:47:48.608Z,11.9
2022-10-28T00:49:46.657Z,11.9
2022-10-28T00:51:46.038Z,12
2022-10-28T00:53:46.805Z,12
2022-10-28T00:55:45.617Z,12.1
2022-10-28T00:57:45.560Z,12
2022-10-28T00:59:45.482Z,11.9
2022-10-28T01:01:48.679Z,11.9
2022-10-28T01:03:45.750Z,11.7
2022-10-28T01:05:45.516Z,11.6
2022-10-28T01:07:47.047Z,11.8
2022-10-28T01:09:45.596Z,11.7
2022-10-28T01:11:48.195Z,11.5
2022-10-28T01:15:51.718Z,11.2
2022-10-28T01:17:48.190Z,11.2
2022-10-28T01:19:48.657Z,11
2022-10-28T01:21:45.870Z,10.9
2022-10-28T01:23:48.042Z,10.9
2022-10-28T01:25:45.775Z,11
2022-10-28T01:27:47.040Z,11.1
2022-10-28T01:29:45.368Z,11.2
2022-10-28T01:31:45.716Z,11.4
2022-10-28T01:33:45.660Z,11.4
2022-10-28T01:35:46.715Z,11.4
2022-10-28T01:37:45.587Z,11.5
2022-10-28T01:39:46.025Z,11.5
2022-10-28T01:41:48.318Z,11.5
2022-10-28T01:43:46.070Z,11.4
2022-10-28T01:45:45.606Z,11.3
2022-10-28T01:47:45.393Z,11.4
2022-10-28T01:49:45.599Z,11.4
2022-10-28T01:51:47.308Z,11.1
2022-10-28T01:53:47.919Z,11
2022-10-28T01:55:45.595Z,11
2022-10-28T01:57:52.101Z,10.9
2022-10-28T01:59:51.914Z,11.1
2022-10-28T02:01:51.549Z,11
2022-10-28T02:07:46.917Z,11.2
2022-10-28T02:09:45.596Z,11.2
2022-10-28T02:11:48.632Z,11.3
2022-10-28T02:13:48.040Z,11.1
2022-10-28T02:15:53.445Z,10.9
2022-10-28T02:17:46.721Z,10.9
2022-10-28T02:19:45.719Z,11.1
2022-10-28T02:21:49.249Z,11.3
2022-10-28T02:23:45.433Z,11.4
2022-10-28T02:25:48.043Z,11.4
2022-10-28T02:27:49.478Z,11.4
2022-10-28T02:29:45.432Z,11.4
2022-10-28T02:31:48.023Z,11.4
2022-10-28T02:33:45.686Z,11.3
2022-10-28T02:35:48.680Z,11.2
2022-10-28T02:37:48.655Z,11.2
2022-10-28T02:39:55.061Z,11.1
2022-10-28T02:41:45.393Z,11.2
2022-10-28T02:43:48.378Z,11.3
2022-10-28T02:45:48.664Z,11.3
2022-10-28T02:49:51.122Z,11.2
2022-10-28T02:51:45.611Z,11.3
2022-10-28T02:53:48.315Z,11.3
2022-10-28T02:55:46.658Z,11.1
2022-10-28T02:57:45.730Z,11.1
2022-10-28T02:59:48.695Z,11.1
2022-10-28T03:01:48.318Z,11.1
2022-10-28T03:03:46.327Z,11.1
2022-10-28T03:05:45.973Z,11.2
2022-10-28T03:07:46.422Z,11.2
2022-10-28T03:09:45.634Z,11.3
2022-10-28T03:11:45.946Z,11.3
2022-10-28T03:13:46.198Z,11.3
2022-10-28T03:15:48.663Z,11.2
2022-10-28T03:17:48.656Z,11.2
2022-10-28T03:19:45.838Z,11.1
2022-10-28T03:21:45.699Z,11.2
2022-10-28T03:23:46.188Z,11.2
2022-10-28T03:25:51.843Z,11.4
2022-10-28T03:27:45.593Z,11.4
2022-10-28T03:29:48.645Z,11.3
2022-10-28T03:31:45.746Z,11.4
2022-10-28T03:33:45.769Z,11.4
2022-10-28T03:35:47.267Z,11.3
2022-10-28T03:37:45.647Z,11.1
2022-10-28T03:39:45.594Z,11
2022-10-28T03:41:48.281Z,11
2022-10-28T03:43:46.021Z,10.9
2022-10-28T03:45:48.980Z,10.8
2022-10-28T03:47:46.665Z,10.8
2022-10-28T03:49:46.127Z,10.7
2022-10-28T03:51:45.853Z,10.7
2022-10-28T03:53:45.428Z,10.7
2022-10-28T03:55:51.900Z,10.6
2022-10-28T03:57:48.692Z,10.6
2022-10-28T04:01:45.870Z,10.2
2022-10-28T04:03:49.026Z,10.1
2022-10-28T04:05:45.776Z,10.2
2022-10-28T04:07:46.814Z,10.3
2022-10-28T04:09:48.710Z,10.4
2022-10-28T04:11:45.923Z,10.4
2022-10-28T04:13:47.997Z,10.4
2022-10-28T04:15:48.750Z,10.5
2022-10-28T04:19:45.740Z,10.4
2022-10-28T04:21:48.703Z,10.5
2022-10-28T04:23:48.377Z,10.6
2022-10-28T04:25:45.810Z,10.6
2022-10-28T04:27:45.725Z,10.6
2022-10-28T04:29:46.746Z,10.5
2022-10-28T04:31:47.537Z,10.5
2022-10-28T04:33:45.617Z,10.7
2022-10-28T04:35:45.404Z,10.8
2022-10-28T04:37:45.621Z,10.8
2022-10-28T04:39:45.790Z,10.9
2022-10-28T04:41:48.309Z,11
2022-10-28T04:43:45.793Z,11
2022-10-28T04:45:45.813Z,10.9
2022-10-28T04:47:55.150Z,10.8
2022-10-28T04:49:45.741Z,10.8
2022-10-28T04:51:48.243Z,11.1
2022-10-28T04:53:48.261Z,11.1
2022-10-28T04:55:45.643Z,11
2022-10-28T04:57:48.685Z,10.9
2022-10-28T04:59:48.439Z,10.9
2022-10-28T05:01:45.887Z,10.9
2022-10-28T05:03:45.618Z,10.8
2022-10-28T05:05:45.501Z,10.8
2022-10-28T05:07:48.686Z,10.8
2022-10-28T05:11:45.484Z,10.7
2022-10-28T05:13:49.150Z,10.6
2022-10-28T05:15:45.625Z,10.6
2022-10-28T05:17:45.547Z,10.6
2022-10-28T05:19:45.761Z,10.6
2022-10-28T05:21:45.628Z,10.6
2022-10-28T05:23:48.657Z,10.8
2022-10-28T05:25:48.419Z,10.8
2022-10-28T05:27:45.604Z,10.8
2022-10-28T05:29:45.493Z,10.8
2022-10-28T05:31:45.770Z,10.8
2022-10-28T05:33:46.040Z,10.8
2022-10-28T05:35:46.731Z,10.8
2022-10-28T05:37:45.778Z,10.7
2022-10-28T05:41:45.524Z,10.6
2022-10-28T05:43:45.747Z,10.3
2022-10-28T05:45:51.018Z,10.2
2022-10-28T05:47:45.468Z,10.2
2022-10-28T05:49:45.833Z,10.2
2022-10-28T05:53:45.517Z,10.6
2022-10-28T05:55:47.606Z,10.6
2022-10-28T05:57:46.438Z,10.5
2022-10-28T05:59:45.974Z,10.6
2022-10-28T06:01:48.137Z,10.9
2022-10-28T06:03:45.652Z,10.9
2022-10-28T06:05:48.717Z,11
2022-10-28T06:07:48.634Z,11.1
2022-10-28T06:09:45.632Z,11.1
2022-10-28T06:11:47.139Z,10.9
2022-10-28T06:13:47.285Z,10.9
2022-10-28T06:15:50.127Z,10.9
2022-10-28T06:19:47.157Z,11.1
2022-10-28T06:21:44.095Z,11.4
2022-10-28T06:23:43.859Z,11.6
2022-10-28T06:25:47.100Z,11.7
2022-10-28T06:27:44.105Z,11.7
2022-10-28T06:29:46.700Z,11.6
2022-10-28T06:33:45.486Z,11.7
2022-10-28T06:37:50.575Z,11.9
2022-10-28T06:39:44.118Z,11.8
2022-10-28T06:41:43.886Z,11.9
2022-10-28T06:43:44.293Z,12
2022-10-28T06:45:44.227Z,12.3
2022-10-28T06:47:52.313Z,12.4
2022-10-28T06:49:45.652Z,12.5
2022-10-28T06:51:45.624Z,12.6
2022-10-28T06:53:45.432Z,12.6
2022-10-28T06:55:47.179Z,12.6
2022-10-28T06:57:48.294Z,12.7
2022-10-28T06:59:45.430Z,12.6
2022-10-28T07:01:48.751Z,12.7
2022-10-28T07:03:45.655Z,12.8
2022-10-28T07:05:48.695Z,12.9
2022-10-28T07:07:46.170Z,13.1
2022-10-28T07:09:45.725Z,13.3
2022-10-28T07:11:45.554Z,13.5
2022-10-28T07:13:48.945Z,13.5
2022-10-28T07:15:46.077Z,13.4
2022-10-28T07:17:45.982Z,13.4
2022-10-28T07:19:46.526Z,13.5
2022-10-28T07:21:45.795Z,13.6
2022-10-28T07:23:45.529Z,13.6
2022-10-28T07:25:48.759Z,13.8
2022-10-28T07:27:45.711Z,13.9
2022-10-28T07:29:45.474Z,13.9
2022-10-28T07:31:45.795Z,13.8
2022-10-28T07:35:46.014Z,14
2022-10-28T07:37:45.800Z,14.2
2022-10-28T07:39:45.654Z,14.3
2022-10-28T07:41:48.401Z,14.2
2022-10-28T07:43:45.695Z,13.9
2022-10-28T07:47:48.724Z,14.3
2022-10-28T07:49:45.688Z,14.4
2022-10-28T07:51:45.788Z,14.7
2022-10-28T07:53:46.816Z,15.1
2022-10-28T07:55:46.276Z,15.1
2022-10-28T07:57:48.787Z,15.3
2022-10-28T07:59:45.892Z,15.5
2022-10-28T08:01:45.926Z,15.5
2022-10-28T08:05:45.560Z,15.5
2022-10-28T08:07:49.116Z,15.6
2022-10-28T08:09:46.078Z,15.6
2022-10-28T08:11:48.703Z,15.6
2022-10-28T08:13:46.164Z,15.7
2022-10-28T08:15:49.285Z,15.7
2022-10-28T08:17:45.409Z,15.7
2022-10-28T08:19:46.133Z,15.6
2022-10-28T08:21:51.832Z,15.6
2022-10-28T08:27:46.177Z,15.3
2022-10-28T08:29:48.915Z,15.4
2022-10-28T08:31:46.428Z,15.6
2022-10-28T08:34:57.445Z,15.7
2022-10-28T08:38:53.593Z,15.7
2022-10-28T08:40:54.937Z,15.7
2022-10-28T08:42:53.879Z,15.8
2022-10-28T08:44:53.678Z,15.9
2022-10-28T08:46:53.719Z,15.9
2022-10-28T08:48:54.097Z,16.1
2022-10-28T08:50:54.917Z,16.1
2022-10-28T08:52:57.118Z,16.2
2022-10-28T08:54:53.566Z,16.2
2022-10-28T08:56:53.559Z,16.2
2022-10-28T08:58:53.687Z,16.1
2022-10-28T09:00:53.729Z,16.1
2022-10-28T09:02:54.466Z,16.1
2022-10-28T09:04:53.670Z,16.1
2022-10-28T09:06:53.616Z,16.2
2022-10-28T09:10:53.581Z,16.2
2022-10-28T09:12:56.660Z,16.3
2022-10-28T09:14:54.047Z,16.4
2022-10-28T09:16:56.180Z,16.5
2022-10-28T09:18:53.716Z,16.5
2022-10-28T09:20:53.587Z,16.4
2022-10-28T09:22:54.357Z,16.2
2022-10-28T09:24:53.684Z,16.2
2022-10-28T09:26:56.403Z,16.3
2022-10-28T09:28:54.080Z,16.3
2022-10-28T09:30:53.681Z,16.3
2022-10-28T09:34:54.006Z,16.3
2022-10-28T09:36:53.682Z,16.3
2022-10-28T09:38:54.072Z,16.3
2022-10-28T09:40:53.671Z,16.3
2022-10-28T09:44:54.158Z,16.3
2022-10-28T09:46:56.913Z,16.3
2022-10-28T09:48:56.285Z,16.3
2022-10-28T09:50:54.299Z,16.3
2022-10-28T09:52:53.588Z,16.4
2022-10-28T09:54:53.939Z,16.4
2022-10-28T09:56:53.725Z,16.4
2022-10-28T09:58:56.217Z,16.4
2022-10-28T10:00:55.960Z,16.4
2022-10-28T10:02:53.655Z,16.3
2022-10-28T10:04:54.892Z,16.3
2022-10-28T10:06:53.613Z,16.3
2022-10-28T10:08:53.719Z,16.3
2022-10-28T10:10:53.669Z,16.3
2022-10-28T10:12:55.170Z,16.4
2022-10-28T10:14:53.705Z,16.5
2022-10-28T10:18:57.156Z,16.7
2022-10-28T10:20:53.625Z,16.7
2022-10-28T10:22:57.014Z,16.7
2022-10-28T10:24:56.768Z,16.8
2022-10-28T10:26:53.593Z,16.8
2022-10-28T10:28:53.564Z,16.9
2022-10-28T10:30:56.553Z,17
2022-10-28T10:32:53.567Z,17
2022-10-28T10:34:53.565Z,17.1
2022-10-28T10:36:53.669Z,17.1
2022-10-28T10:38:53.965Z,17.1
2022-10-28T10:40:54.296Z,17.1
2022-10-28T10:46:58.796Z,17
2022-10-28T10:48:54.047Z,17.1
2022-10-28T10:50:54.310Z,17.1
2022-10-28T10:52:57.412Z,17.1
2022-10-28T10:54:53.613Z,17.1
2022-10-28T10:56:53.611Z,17.1
2022-10-28T11:00:54.173Z,17.2
2022-10-28T11:02:55.820Z,17.2
2022-10-28T11:04:56.970Z,17.2
2022-10-28T11:06:54.888Z,17.3
2022-10-28T11:10:53.696Z,17.3
2022-10-28T11:12:53.968Z,17.3
2022-10-28T11:14:53.585Z,17.3
2022-10-28T11:16:56.556Z,17.3
2022-10-28T11:18:56.417Z,17.3
2022-10-28T11:20:56.651Z,17.4
2022-10-28T11:22:54.293Z,17.4
2022-10-28T11:24:54.146Z,17.5
2022-10-28T11:26:53.719Z,17.5
2022-10-28T11:30:53.659Z,17.5
2022-10-28T11:33:01.305Z,17.6
2022-10-28T11:34:53.615Z,17.6
2022-10-28T11:36:56.467Z,17.7
2022-10-28T11:38:54.278Z,17.7
2022-10-28T11:42:57.277Z,17.7
2022-10-28T11:44:53.606Z,17.7
2022-10-28T11:48:54.902Z,17.8
2022-10-28T11:50:53.611Z,17.8
2022-10-28T11:52:54.086Z,17.8
2022-10-28T11:54:53.804Z,17.8
2022-10-28T11:56:54.058Z,17.8
2022-10-28T11:58:53.740Z,17.8
2022-10-28T12:00:53.747Z,17.9
2022-10-28T12:02:53.762Z,17.9
2022-10-28T12:04:53.812Z,17.9
2022-10-28T12:06:53.622Z,17.9
2022-10-28T12:08:56.615Z,17.9
2022-10-28T12:10:56.702Z,17.9
2022-10-28T12:14:53.714Z,18
2022-10-28T12:16:53.949Z,18
2022-10-28T12:18:53.697Z,18
2022-10-28T12:20:54.942Z,18.1
2022-10-28T12:22:53.761Z,18.2
2022-10-28T12:24:54.141Z,18.2
2022-10-28T12:26:54.425Z,18.3
2022-10-28T12:30:53.703Z,18.4
2022-10-28T12:32:54.724Z,18.4
2022-10-28T12:34:56.682Z,18.4
2022-10-28T12:36:54.010Z,18.5
2022-10-28T12:38:56.476Z,18.5
2022-10-28T12:40:53.700Z,18.4
2022-10-28T12:42:54.697Z,18.4
2022-10-28T12:44:53.749Z,18.3
2022-10-28T12:46:53.777Z,18.3
2022-10-28T12:48:56.523Z,18.3
2022-10-28T12:50:54.884Z,18.3
2022-10-28T12:52:53.803Z,18.3
2022-10-28T12:54:56.888Z,18.2
2022-10-28T12:56:53.750Z,18.2
2022-10-28T12:58:53.792Z,18.2
2022-10-28T13:00:53.666Z,18.2
2022-10-28T13:02:53.855Z,18.2
2022-10-28T13:04:55.537Z,18.2
2022-10-28T13:06:54.977Z,18.2
2022-10-28T13:10:53.594Z,18.3
2022-10-28T13:12:53.946Z,18.3
2022-10-28T13:14:54.495Z,18.4
2022-10-28T13:16:53.608Z,18.5
2022-10-28T13:18:56.207Z,18.5
2022-10-28T13:21:00.558Z,18.5
2022-10-28T13:22:57.054Z,18.5
2022-10-28T13:24:53.725Z,18.5
2022-10-28T13:28:53.715Z,18.5
2022-10-28T13:30:54.187Z,18.6
2022-10-28T13:32:54.330Z,18.5
2022-10-28T13:34:55.087Z,18.5
2022-10-28T13:37:00.033Z,18.4
2022-10-28T13:38:53.631Z,18.4
2022-10-28T13:40:53.602Z,18.4
2022-10-28T13:42:54.030Z,18.3
2022-10-28T13:44:57.102Z,18.3
2022-10-28T13:46:53.652Z,18.3
2022-10-28T13:48:57.666Z,18.3
2022-10-28T13:50:54.017Z,18.3
2022-10-28T13:52:54.538Z,18.3
2022-10-28T13:54:53.706Z,18.3
2022-10-28T13:56:56.664Z,18.3
2022-10-28T13:58:59.340Z,18.3
2022-10-28T14:00:53.852Z,18.3
2022-10-28T14:02:56.938Z,18.2
2022-10-28T14:04:53.618Z,18.2
2022-10-28T14:06:56.577Z,18.2
2022-10-28T14:08:53.704Z,18.2
2022-10-28T14:10:53.749Z,18.3
2022-10-28T14:12:57.438Z,18.3
2022-10-28T14:14:53.708Z,18.2
2022-10-28T14:16:53.635Z,18.2
2022-10-28T14:18:56.826Z,18.2
2022-10-28T14:20:53.728Z,18.2
2022-10-28T14:22:54.087Z,18.3
2022-10-28T14:24:53.637Z,18.3
2022-10-28T14:27:05.361Z,18.3
2022-10-28T14:28:56.195Z,18.3
2022-10-28T14:30:54.052Z,18.3
2022-10-28T14:32:53.874Z,18.3
2022-10-28T14:34:54.379Z,18.3
2022-10-28T14:37:04.660Z,18.3
2022-10-28T14:38:54.003Z,18.3
2022-10-28T14:40:56.489Z,18.3
2022-10-28T14:42:54.364Z,18.4
2022-10-28T14:44:54.947Z,18.4
2022-10-28T14:46:56.844Z,18.4
2022-10-28T14:48:53.604Z,18.5
2022-10-28T14:50:56.453Z,18.5
2022-10-28T14:52:53.636Z,18.5
2022-10-28T14:54:56.475Z,18.5
2022-10-28T14:56:54.397Z,18.6
2022-10-28T14:58:56.853Z,18.6
2022-10-28T15:00:56.906Z,18.6
2022-10-28T15:02:56.862Z,18.7
2022-10-28T15:04:56.608Z,18.6
2022-10-28T15:08:53.666Z,18.6
2022-10-28T15:10:53.663Z,18.6
2022-10-28T15:12:57.129Z,18.6
2022-10-28T15:14:54.022Z,18.6
2022-10-28T15:18:56.659Z,18.5
2022-10-28T15:20:53.606Z,18.5
2022-10-28T15:22:54.361Z,18.4
2022-10-28T15:24:56.934Z,18.4
2022-10-28T15:26:58.450Z,18.3
2022-10-28T15:28:53.743Z,18.2
2022-10-28T15:30:53.724Z,18.2
2022-10-28T15:32:54.209Z,18.2
2022-10-28T15:34:56.248Z,18.1
2022-10-28T15:36:56.939Z,18.1
2022-10-28T15:38:56.489Z,18
2022-10-28T15:40:53.652Z,18
2022-10-28T15:42:53.820Z,18
2022-10-28T15:44:53.727Z,17.9
2022-10-28T15:48:56.958Z,17.9
2022-10-28T15:50:54.370Z,17.9
2022-10-28T15:52:53.797Z,17.9
2022-10-28T15:54:54.941Z,17.8
2022-10-28T15:56:53.753Z,17.8
2022-10-28T15:58:56.848Z,17.8
2022-10-28T16:00:59.850Z,17.7
2022-10-28T16:02:56.841Z,17.7
2022-10-28T16:04:56.861Z,17.7
2022-10-28T16:06:53.729Z,17.7
2022-10-28T16:08:53.969Z,17.7
2022-10-28T16:12:54.369Z,17.6
2022-10-28T16:14:53.678Z,17.6
2022-10-28T16:16:56.984Z,17.6
2022-10-28T16:18:53.629Z,17.6
2022-10-28T16:21:02.168Z,17.6
2022-10-28T16:23:03.952Z,17.6
2022-10-28T16:24:54.243Z,17.6
2022-10-28T16:26:56.915Z,17.6
2022-10-28T16:28:53.715Z,17.6
2022-10-28T16:30:53.765Z,17.6
2022-10-28T16:32:56.789Z,17.6
2022-10-28T16:34:53.636Z,17.6
2022-10-28T16:36:56.907Z,17.6
2022-10-28T16:38:54.380Z,17.5
2022-10-28T16:40:53.721Z,17.5
2022-10-28T16:42:53.895Z,17.6
2022-10-28T16:46:57.168Z,17.6
2022-10-28T16:49:00.150Z,17.6
2022-10-28T16:50:54.955Z,17.4
2022-10-28T16:52:55.397Z,17.3
2022-10-28T16:54:53.955Z,17.2
2022-10-28T16:56:56.911Z,17.6
2022-10-28T16:58:54.107Z,17.6
2022-10-28T17:00:53.768Z,17.6
2022-10-28T17:02:53.667Z,17.1
2022-10-28T17:04:55.069Z,17
2022-10-28T17:06:53.655Z,17.1
2022-10-28T17:09:03.135Z,17.2
2022-10-28T17:10:53.670Z,17.4
2022-10-28T17:14:57.234Z,17.4
2022-10-28T17:16:56.884Z,16.9
2022-10-28T17:18:56.904Z,16.6
2022-10-28T17:20:56.858Z,16.6
2022-10-28T17:22:53.950Z,16.5
2022-10-28T17:24:58.472Z,16.5
2022-10-28T17:27:03.459Z,16.7
2022-10-28T17:28:53.631Z,16.8
2022-10-28T17:30:56.225Z,17.2
2022-10-28T17:32:56.916Z,17.3
2022-10-28T17:34:53.808Z,17.3
2022-10-28T17:36:55.101Z,17.3
2022-10-28T17:38:53.692Z,17.3
2022-10-28T17:40:53.624Z,17.4
2022-10-28T17:44:53.722Z,17.4
2022-10-28T17:46:53.763Z,17.4
2022-10-28T17:48:56.744Z,17.4
2022-10-28T17:50:56.895Z,17.4
2022-10-28T17:52:56.907Z,17.5
2022-10-28T17:54:54.116Z,17.5
2022-10-28T17:56:53.753Z,17.5
2022-10-28T17:58:54.246Z,17.5
2022-10-28T18:00:56.858Z,17.5
2022-10-28T18:02:54.156Z,17.4
2022-10-28T18:04:56.500Z,17.4
2022-10-28T18:06:56.881Z,17.4
2022-10-28T18:08:53.651Z,17.4
2022-10-28T18:10:53.686Z,17.4
2022-10-28T18:12:56.815Z,17.4
2022-10-28T18:15:00.051Z,17.4
2022-10-28T18:18:53.806Z,17.4
2022-10-28T18:20:53.779Z,17.4
2022-10-28T18:27:03.617Z,17.4
2022-10-28T18:28:56.480Z,17.4
2022-10-28T18:30:53.667Z,17.4
2022-10-28T18:32:57.102Z,17.4
2022-10-28T18:34:54.130Z,17.4
2022-10-28T18:38:53.712Z,17.4
2022-10-28T18:40:54.182Z,17.4
2022-10-28T18:44:53.654Z,17.4
2022-10-28T18:46:56.872Z,17.4
2022-10-28T18:48:56.470Z,17.4
2022-10-28T18:50:53.659Z,17.4
2022-10-28T18:53:03.082Z,17.4
2022-10-28T18:54:56.878Z,17.4
2022-10-28T18:56:57.521Z,17.4
2022-10-28T18:58:53.650Z,17.4
2022-10-28T19:00:56.678Z,17.3
2022-10-28T19:04:56.499Z,17.3
2022-10-28T19:06:53.743Z,17.4
2022-10-28T19:08:55.049Z,17.4
2022-10-28T19:10:53.688Z,17.4
2022-10-28T19:12:53.655Z,17.3
2022-10-28T19:14:56.423Z,17.4
2022-10-28T19:16:56.901Z,17.4
2022-10-28T19:18:56.476Z,17.4
2022-10-28T19:20:53.698Z,17.4
2022-10-28T19:22:54.387Z,17.4
2022-10-28T19:24:53.718Z,17.4
2022-10-28T19:26:53.695Z,17.4
2022-10-28T19:30:53.656Z,17.2
2022-10-28T19:32:54.666Z,17.2
2022-10-28T19:34:56.918Z,17.4
2022-10-28T19:36:54.133Z,17.3
2022-10-28T19:38:54.167Z,17.2
2022-10-28T19:40:56.807Z,17.2
2022-10-28T19:42:56.265Z,17.3
2022-10-28T19:45:00.799Z,17.3
2022-10-28T19:46:56.526Z,17.3
2022-10-28T19:48:53.849Z,17
2022-10-28T19:50:55.013Z,16.8
2022-10-28T19:52:54.395Z,16.8
2022-10-28T19:54:54.516Z,16.9
2022-10-28T19:56:56.841Z,16.9
2022-10-28T19:58:55.450Z,16.8
2022-10-28T20:00:54.985Z,16.9
2022-10-28T20:02:56.908Z,17
2022-10-28T20:04:56.949Z,16.9
2022-10-28T20:06:56.995Z,16.9
2022-10-28T20:08:53.711Z,17
2022-10-28T20:10:56.834Z,17
2022-10-28T20:12:54.803Z,16.8
2022-10-28T20:14:54.862Z,16.6
2022-10-28T20:16:56.263Z,16.8
2022-10-28T20:18:53.644Z,16.6
2022-10-28T20:22:53.674Z,16.5
2022-10-28T20:24:53.795Z,16.5
2022-10-28T20:26:53.731Z,16.7
2022-10-28T20:28:53.652Z,16.7
2022-10-28T20:30:56.887Z,16.8
2022-10-28T20:32:55.811Z,16.8
2022-10-28T20:34:54.168Z,16.7
2022-10-28T20:36:54.136Z,16.8
2022-10-28T20:39:04.227Z,16.7
2022-10-28T20:40:53.660Z,16.7
2022-10-28T20:42:53.990Z,16.7
2022-10-28T20:44:53.723Z,16.5
2022-10-28T20:46:53.653Z,16.4
2022-10-28T20:48:54.060Z,16.2
2022-10-28T20:50:54.217Z,16.2
2022-10-28T20:52:57.259Z,16.1
2022-10-28T20:54:57.408Z,16.1
2022-10-28T20:56:56.777Z,16
2022-10-28T20:59:00.112Z,16.1
2022-10-28T21:04:56.487Z,15.8
2022-10-28T21:06:54.510Z,15.8
2022-10-28T21:08:53.672Z,15.8
2022-10-28T21:10:53.660Z,15.8
2022-10-28T21:12:59.386Z,15.7
2022-10-28T21:16:57.690Z,15.6
2022-10-28T21:18:54.124Z,15.5
2022-10-28T21:22:53.827Z,15.4
2022-10-28T21:24:56.279Z,15.5
2022-10-28T21:26:56.905Z,15.5
2022-10-28T21:30:54.078Z,15.3
2022-10-28T21:32:57.135Z,15.3
2022-10-28T21:34:54.123Z,15.3
2022-10-28T21:36:53.692Z,15.2
2022-10-28T21:38:53.658Z,15.3
2022-10-28T21:40:53.698Z,15.4
2022-10-28T21:42:53.703Z,15.3
2022-10-28T21:44:56.877Z,15.1
2022-10-28T21:46:53.672Z,15.2
2022-10-28T21:48:56.508Z,15.3
2022-10-28T21:50:57.274Z,15.2
2022-10-28T21:54:54.979Z,15.5
2022-10-28T21:56:53.715Z,15.5
2022-10-28T21:58:54.230Z,15.4
2022-10-28T22:00:56.970Z,15.5
2022-10-28T22:02:56.562Z,15.6
2022-10-28T22:04:54.131Z,15.8
2022-10-28T22:06:53.722Z,15.8
2022-10-28T22:08:55.020Z,15.6
2022-10-28T22:10:58.573Z,15.7
2022-10-28T22:12:55.026Z,15.5
2022-10-28T22:14:53.703Z,15.4
2022-10-28T22:16:54.993Z,15.4
2022-10-28T22:18:53.779Z,15.4
2022-10-28T22:21:00.422Z,15.4
2022-10-28T22:22:57.239Z,15.3
2022-10-28T22:26:56.905Z,15.3
2022-10-28T22:30:56.916Z,15.4
2022-10-28T22:32:57.217Z,15.3
2022-10-28T22:34:53.825Z,15.1
2022-10-28T22:36:54.492Z,15.1
2022-10-28T22:40:53.690Z,15.2
2022-10-28T22:42:53.721Z,15
2022-10-28T22:44:53.762Z,15
2022-10-28T22:46:56.559Z,15
2022-10-28T22:48:54.415Z,15.1
2022-10-28T22:50:54.167Z,14.9
2022-10-28T22:52:53.811Z,14.7
2022-10-28T22:54:53.822Z,14.7
2022-10-28T22:58:53.790Z,14.5
2022-10-28T23:00:54.200Z,14.4
2022-10-28T23:02:54.154Z,14.6
2022-10-28T23:04:53.878Z,14.8
2022-10-28T23:06:53.730Z,14.8
2022-10-28T23:08:53.727Z,14.9
2022-10-28T23:10:56.504Z,14.9
2022-10-28T23:14:54.555Z,14.9
2022-10-28T23:16:53.808Z,14.7
2022-10-28T23:18:53.777Z,14.7
2022-10-28T23:20:53.805Z,14.6
2022-10-28T23:22:54.256Z,14.5
2022-10-28T23:24:53.702Z,14.4
2022-10-28T23:26:54.210Z,14.2
2022-10-28T23:28:53.777Z,14.3
2022-10-28T23:30:55.056Z,14.3
2022-10-28T23:32:53.822Z,14.2
2022-10-28T23:35:03.863Z,14.1
2022-10-28T23:36:53.682Z,14.3
2022-10-28T23:38:53.841Z,14.5
2022-10-28T23:40:53.777Z,14.4
2022-10-28T23:42:54.574Z,14.3
2022-10-28T23:44:54.268Z,14.5
2022-10-28T23:48:53.683Z,14.3
2022-10-28T23:50:53.719Z,14
2022-10-28T23:52:54.149Z,13.8
2022-10-28T23:54:53.680Z,13.7
2022-10-28T23:56:53.809Z,13.6
2022-10-28T23:58:53.792Z,13.6
